sensor_id;sensor_type;location;lat;lon;timestamp;temperature;humidity
41678;DHT22;27364;49.026;8.712;2022-08-23T00:01:32;20.50;71.30
41678;DHT22;27364;49.026;8.712;2022-08-23T00:04:03;20.60;71.10
41678;DHT22;27364;49.026;8.712;2022-08-23T00:06:29;20.60;71.10
41678;DHT22;27364;49.026;8.712;2022-08-23T00:08:55;20.60;71.10
41678;DHT22;27364;49.026;8.712;2022-08-23T00:11:32;20.50;71.70
41678;DHT22;27364;49.026;8.712;2022-08-23T00:14:03;20.50;71.50
41678;DHT22;27364;49.026;8.712;2022-08-23T00:16:30;20.50;71.60
41678;DHT22;27364;49.026;8.712;2022-08-23T00:18:56;20.40;72.10
41678;DHT22;27364;49.026;8.712;2022-08-23T00:21:22;20.40;72.60
41678;DHT22;27364;49.026;8.712;2022-08-23T00:23:47;20.30;71.90
41678;DHT22;27364;49.026;8.712;2022-08-23T00:26:13;20.30;71.90
41678;DHT22;27364;49.026;8.712;2022-08-23T00:28:39;20.30;72.10
41678;DHT22;27364;49.026;8.712;2022-08-23T00:31:05;20.30;72.30
41678;DHT22;27364;49.026;8.712;2022-08-23T00:33:31;20.30;72.30
41678;DHT22;27364;49.026;8.712;2022-08-23T00:35:57;20.30;72.10
41678;DHT22;27364;49.026;8.712;2022-08-23T00:38:22;20.30;72.30
41678;DHT22;27364;49.026;8.712;2022-08-23T00:40:51;20.30;73.20
41678;DHT22;27364;49.026;8.712;2022-08-23T00:43:26;20.30;72.80
41678;DHT22;27364;49.026;8.712;2022-08-23T00:46:46;20.30;72.60
41678;DHT22;27364;49.026;8.712;2022-08-23T00:49:32;20.30;72.70
41678;DHT22;27364;49.026;8.712;2022-08-23T00:52:09;20.30;72.40
41678;DHT22;27364;49.026;8.712;2022-08-23T00:54:37;20.30;72.30
41678;DHT22;27364;49.026;8.712;2022-08-23T00:57:05;20.20;72.40
41678;DHT22;27364;49.026;8.712;2022-08-23T00:59:32;20.20;72.40
41678;DHT22;27364;49.026;8.712;2022-08-23T01:01:59;20.20;73.20
41678;DHT22;27364;49.026;8.712;2022-08-23T01:04:26;19.90;75.00
41678;DHT22;27364;49.026;8.712;2022-08-23T01:06:58;19.80;75.20
41678;DHT22;27364;49.026;8.712;2022-08-23T01:09:27;19.80;75.20
41678;DHT22;27364;49.026;8.712;2022-08-23T01:12:06;19.70;74.70
41678;DHT22;27364;49.026;8.712;2022-08-23T01:14:37;19.70;75.50
41678;DHT22;27364;49.026;8.712;2022-08-23T01:17:12;19.60;75.50
41678;DHT22;27364;49.026;8.712;2022-08-23T01:19:46;19.60;76.00
41678;DHT22;27364;49.026;8.712;2022-08-23T01:22:21;19.50;76.40
41678;DHT22;27364;49.026;8.712;2022-08-23T01:24:50;19.40;76.30
41678;DHT22;27364;49.026;8.712;2022-08-23T01:27:16;19.40;76.70
41678;DHT22;27364;49.026;8.712;2022-08-23T01:29:42;19.30;76.40
41678;DHT22;27364;49.026;8.712;2022-08-23T01:32:08;19.40;76.30
41678;DHT22;27364;49.026;8.712;2022-08-23T01:34:35;19.40;76.40
41678;DHT22;27364;49.026;8.712;2022-08-23T01:37:03;19.40;76.70
41678;DHT22;27364;49.026;8.712;2022-08-23T01:39:29;19.40;76.50
41678;DHT22;27364;49.026;8.712;2022-08-23T01:41:55;19.40;76.80
41678;DHT22;27364;49.026;8.712;2022-08-23T01:44:22;19.40;77.00
41678;DHT22;27364;49.026;8.712;2022-08-23T01:46:48;19.40;77.00
41678;DHT22;27364;49.026;8.712;2022-08-23T01:49:14;19.30;77.60
41678;DHT22;27364;49.026;8.712;2022-08-23T01:51:40;19.10;78.20
41678;DHT22;27364;49.026;8.712;2022-08-23T01:54:06;18.90;79.80
41678;DHT22;27364;49.026;8.712;2022-08-23T01:56:32;18.60;81.20
41678;DHT22;27364;49.026;8.712;2022-08-23T01:58:59;18.40;82.40
41678;DHT22;27364;49.026;8.712;2022-08-23T02:01:24;18.40;83.20
41678;DHT22;27364;49.026;8.712;2022-08-23T02:03:50;18.40;82.70
41678;DHT22;27364;49.026;8.712;2022-08-23T02:06:16;18.30;83.00
41678;DHT22;27364;49.026;8.712;2022-08-23T02:08:42;18.20;83.80
41678;DHT22;27364;49.026;8.712;2022-08-23T02:11:31;18.20;84.10
41678;DHT22;27364;49.026;8.712;2022-08-23T02:13:59;18.10;84.90
41678;DHT22;27364;49.026;8.712;2022-08-23T02:16:29;18.10;85.80
41678;DHT22;27364;49.026;8.712;2022-08-23T02:18:56;18.00;85.90
41678;DHT22;27364;49.026;8.712;2022-08-23T02:21:23;17.90;86.30
41678;DHT22;27364;49.026;8.712;2022-08-23T02:23:48;17.80;86.90
41678;DHT22;27364;49.026;8.712;2022-08-23T02:26:16;17.70;87.90
41678;DHT22;27364;49.026;8.712;2022-08-23T02:28:42;17.70;88.60
41678;DHT22;27364;49.026;8.712;2022-08-23T02:31:07;17.70;88.90
41678;DHT22;27364;49.026;8.712;2022-08-23T02:33:33;17.60;89.10
41678;DHT22;27364;49.026;8.712;2022-08-23T02:35:59;17.60;89.90
41678;DHT22;27364;49.026;8.712;2022-08-23T02:38:24;17.60;90.10
41678;DHT22;27364;49.026;8.712;2022-08-23T02:40:50;17.60;90.30
41678;DHT22;27364;49.026;8.712;2022-08-23T02:43:15;17.70;89.90
41678;DHT22;27364;49.026;8.712;2022-08-23T02:45:41;17.70;89.70
41678;DHT22;27364;49.026;8.712;2022-08-23T02:48:08;17.70;89.50
41678;DHT22;27364;49.026;8.712;2022-08-23T02:50:34;17.70;90.20
41678;DHT22;27364;49.026;8.712;2022-08-23T02:53:00;17.70;89.80
41678;DHT22;27364;49.026;8.712;2022-08-23T02:55:27;17.80;89.30
41678;DHT22;27364;49.026;8.712;2022-08-23T02:57:53;17.90;88.90
41678;DHT22;27364;49.026;8.712;2022-08-23T03:00:20;17.90;88.70
41678;DHT22;27364;49.026;8.712;2022-08-23T03:02:46;17.80;89.40
41678;DHT22;27364;49.026;8.712;2022-08-23T03:05:12;17.60;90.50
41678;DHT22;27364;49.026;8.712;2022-08-23T03:07:38;17.30;91.30
41678;DHT22;27364;49.026;8.712;2022-08-23T03:10:06;17.30;91.80
41678;DHT22;27364;49.026;8.712;2022-08-23T03:12:32;17.20;92.20
41678;DHT22;27364;49.026;8.712;2022-08-23T03:14:58;17.10;92.30
41678;DHT22;27364;49.026;8.712;2022-08-23T03:17:23;17.20;92.10
41678;DHT22;27364;49.026;8.712;2022-08-23T03:19:49;17.20;92.10
41678;DHT22;27364;49.026;8.712;2022-08-23T03:22:16;17.20;92.30
41678;DHT22;27364;49.026;8.712;2022-08-23T03:24:42;17.20;92.50
41678;DHT22;27364;49.026;8.712;2022-08-23T03:27:08;17.20;92.80
41678;DHT22;27364;49.026;8.712;2022-08-23T03:29:34;17.10;92.80
41678;DHT22;27364;49.026;8.712;2022-08-23T03:32:00;17.10;92.80
41678;DHT22;27364;49.026;8.712;2022-08-23T03:34:26;17.10;92.80
41678;DHT22;27364;49.026;8.712;2022-08-23T03:36:51;17.10;92.90
41678;DHT22;27364;49.026;8.712;2022-08-23T03:39:17;17.20;92.80
41678;DHT22;27364;49.026;8.712;2022-08-23T03:41:42;17.20;92.80
41678;DHT22;27364;49.026;8.712;2022-08-23T03:44:08;17.20;92.80
41678;DHT22;27364;49.026;8.712;2022-08-23T03:46:34;17.30;93.00
41678;DHT22;27364;49.026;8.712;2022-08-23T03:49:00;17.20;93.30
41678;DHT22;27364;49.026;8.712;2022-08-23T03:51:28;17.20;93.60
41678;DHT22;27364;49.026;8.712;2022-08-23T03:53:54;17.20;93.60
41678;DHT22;27364;49.026;8.712;2022-08-23T03:56:30;17.10;93.60
41678;DHT22;27364;49.026;8.712;2022-08-23T03:58:57;17.20;93.50
41678;DHT22;27364;49.026;8.712;2022-08-23T04:01:23;17.30;93.30
41678;DHT22;27364;49.026;8.712;2022-08-23T04:03:49;17.30;93.40
41678;DHT22;27364;49.026;8.712;2022-08-23T04:06:16;17.40;93.00
41678;DHT22;27364;49.026;8.712;2022-08-23T04:08:43;17.40;93.00
41678;DHT22;27364;49.026;8.712;2022-08-23T04:11:09;17.40;92.90
41678;DHT22;27364;49.026;8.712;2022-08-23T04:13:37;17.30;93.00
41678;DHT22;27364;49.026;8.712;2022-08-23T04:16:04;17.30;93.00
41678;DHT22;27364;49.026;8.712;2022-08-23T04:18:30;17.20;93.40
41678;DHT22;27364;49.026;8.712;2022-08-23T04:20:58;17.10;93.60
41678;DHT22;27364;49.026;8.712;2022-08-23T04:23:25;16.90;94.30
41678;DHT22;27364;49.026;8.712;2022-08-23T04:25:53;16.90;94.70
41678;DHT22;27364;49.026;8.712;2022-08-23T04:28:20;16.90;94.60
41678;DHT22;27364;49.026;8.712;2022-08-23T04:30:45;16.90;94.50
41678;DHT22;27364;49.026;8.712;2022-08-23T04:33:11;16.90;94.50
41678;DHT22;27364;49.026;8.712;2022-08-23T04:35:38;16.90;94.80
41678;DHT22;27364;49.026;8.712;2022-08-23T04:38:03;16.90;94.70
41678;DHT22;27364;49.026;8.712;2022-08-23T04:40:29;16.90;94.50
41678;DHT22;27364;49.026;8.712;2022-08-23T04:43:13;16.90;94.80
41678;DHT22;27364;49.026;8.712;2022-08-23T04:45:39;16.90;95.10
41678;DHT22;27364;49.026;8.712;2022-08-23T04:48:06;16.90;94.90
41678;DHT22;27364;49.026;8.712;2022-08-23T04:50:32;16.90;94.70
41678;DHT22;27364;49.026;8.712;2022-08-23T04:52:58;17.00;94.70
41678;DHT22;27364;49.026;8.712;2022-08-23T04:55:23;17.00;94.70
41678;DHT22;27364;49.026;8.712;2022-08-23T04:57:49;17.00;94.70
41678;DHT22;27364;49.026;8.712;2022-08-23T05:00:15;17.00;95.00
41678;DHT22;27364;49.026;8.712;2022-08-23T05:02:42;17.10;94.80
41678;DHT22;27364;49.026;8.712;2022-08-23T05:05:09;17.10;94.60
41678;DHT22;27364;49.026;8.712;2022-08-23T05:07:35;17.20;94.70
41678;DHT22;27364;49.026;8.712;2022-08-23T05:10:02;17.20;94.40
41678;DHT22;27364;49.026;8.712;2022-08-23T05:12:28;17.20;94.30
41678;DHT22;27364;49.026;8.712;2022-08-23T05:14:54;17.20;94.40
41678;DHT22;27364;49.026;8.712;2022-08-23T05:17:20;17.20;94.40
41678;DHT22;27364;49.026;8.712;2022-08-23T05:19:45;17.30;94.40
41678;DHT22;27364;49.026;8.712;2022-08-23T05:22:11;17.30;94.40
41678;DHT22;27364;49.026;8.712;2022-08-23T05:24:36;17.40;94.20
41678;DHT22;27364;49.026;8.712;2022-08-23T05:27:02;17.40;94.40
41678;DHT22;27364;49.026;8.712;2022-08-23T05:29:28;17.40;94.30
41678;DHT22;27364;49.026;8.712;2022-08-23T05:31:53;17.30;95.20
41678;DHT22;27364;49.026;8.712;2022-08-23T05:34:19;17.30;95.80
41678;DHT22;27364;49.026;8.712;2022-08-23T05:36:45;17.30;96.20
41678;DHT22;27364;49.026;8.712;2022-08-23T05:39:11;17.30;96.10
41678;DHT22;27364;49.026;8.712;2022-08-23T05:41:36;17.40;96.00
41678;DHT22;27364;49.026;8.712;2022-08-23T05:44:04;17.50;95.10
41678;DHT22;27364;49.026;8.712;2022-08-23T05:46:30;17.50;95.30
41678;DHT22;27364;49.026;8.712;2022-08-23T05:48:55;17.50;94.50
41678;DHT22;27364;49.026;8.712;2022-08-23T05:51:25;17.50;94.60
41678;DHT22;27364;49.026;8.712;2022-08-23T05:53:53;17.50;96.20
41678;DHT22;27364;49.026;8.712;2022-08-23T05:56:24;17.50;96.50
41678;DHT22;27364;49.026;8.712;2022-08-23T05:58:52;17.50;96.80
41678;DHT22;27364;49.026;8.712;2022-08-23T06:01:18;17.60;96.30
41678;DHT22;27364;49.026;8.712;2022-08-23T06:03:45;17.60;95.20
41678;DHT22;27364;49.026;8.712;2022-08-23T06:06:11;17.70;94.90
41678;DHT22;27364;49.026;8.712;2022-08-23T06:08:38;17.80;94.40
41678;DHT22;27364;49.026;8.712;2022-08-23T06:11:08;17.90;94.10
41678;DHT22;27364;49.026;8.712;2022-08-23T06:13:41;18.10;93.80
41678;DHT22;27364;49.026;8.712;2022-08-23T06:16:08;18.10;93.60
41678;DHT22;27364;49.026;8.712;2022-08-23T06:18:34;18.20;93.20
41678;DHT22;27364;49.026;8.712;2022-08-23T06:21:08;18.30;93.00
41678;DHT22;27364;49.026;8.712;2022-08-23T06:23:35;18.30;92.90
41678;DHT22;27364;49.026;8.712;2022-08-23T06:26:09;18.40;92.90
41678;DHT22;27364;49.026;8.712;2022-08-23T06:28:35;18.50;92.70
41678;DHT22;27364;49.026;8.712;2022-08-23T06:31:00;18.60;92.60
41678;DHT22;27364;49.026;8.712;2022-08-23T06:33:26;18.70;92.30
41678;DHT22;27364;49.026;8.712;2022-08-23T06:36:01;18.70;92.10
41678;DHT22;27364;49.026;8.712;2022-08-23T06:38:29;18.80;91.80
41678;DHT22;27364;49.026;8.712;2022-08-23T06:40:59;18.80;91.60
41678;DHT22;27364;49.026;8.712;2022-08-23T06:43:25;19.00;91.70
41678;DHT22;27364;49.026;8.712;2022-08-23T06:45:51;19.10;91.50
41678;DHT22;27364;49.026;8.712;2022-08-23T06:48:17;19.10;91.30
41678;DHT22;27364;49.026;8.712;2022-08-23T06:50:43;19.20;91.10
41678;DHT22;27364;49.026;8.712;2022-08-23T06:53:08;19.30;90.90
41678;DHT22;27364;49.026;8.712;2022-08-23T06:55:34;19.40;90.90
41678;DHT22;27364;49.026;8.712;2022-08-23T06:57:59;19.50;90.90
41678;DHT22;27364;49.026;8.712;2022-08-23T07:00:25;19.50;90.60
41678;DHT22;27364;49.026;8.712;2022-08-23T07:02:51;19.60;90.50
41678;DHT22;27364;49.026;8.712;2022-08-23T07:05:16;19.60;91.10
41678;DHT22;27364;49.026;8.712;2022-08-23T07:07:42;19.70;91.50
41678;DHT22;27364;49.026;8.712;2022-08-23T07:10:08;19.70;91.80
41678;DHT22;27364;49.026;8.712;2022-08-23T07:12:38;19.70;91.70
41678;DHT22;27364;49.026;8.712;2022-08-23T07:15:06;19.70;91.50
41678;DHT22;27364;49.026;8.712;2022-08-23T07:17:31;19.80;91.90
41678;DHT22;27364;49.026;8.712;2022-08-23T07:19:57;19.90;91.70
41678;DHT22;27364;49.026;8.712;2022-08-23T07:22:22;19.90;91.20
41678;DHT22;27364;49.026;8.712;2022-08-23T07:24:49;20.00;91.00
41678;DHT22;27364;49.026;8.712;2022-08-23T07:27:14;20.10;90.80
41678;DHT22;27364;49.026;8.712;2022-08-23T07:29:40;20.20;90.60
41678;DHT22;27364;49.026;8.712;2022-08-23T07:32:06;20.30;90.10
41678;DHT22;27364;49.026;8.712;2022-08-23T07:34:32;20.40;89.70
41678;DHT22;27364;49.026;8.712;2022-08-23T07:36:58;20.40;89.40
41678;DHT22;27364;49.026;8.712;2022-08-23T07:39:24;20.50;87.90
41678;DHT22;27364;49.026;8.712;2022-08-23T07:41:51;20.60;87.60
41678;DHT22;27364;49.026;8.712;2022-08-23T07:44:17;20.60;87.90
41678;DHT22;27364;49.026;8.712;2022-08-23T07:46:43;20.70;88.40
41678;DHT22;27364;49.026;8.712;2022-08-23T07:49:10;20.80;88.40
41678;DHT22;27364;49.026;8.712;2022-08-23T07:51:37;20.80;87.40
41678;DHT22;27364;49.026;8.712;2022-08-23T07:54:06;20.80;86.80
41678;DHT22;27364;49.026;8.712;2022-08-23T07:56:33;20.90;86.40
41678;DHT22;27364;49.026;8.712;2022-08-23T07:58:59;20.90;86.10
41678;DHT22;27364;49.026;8.712;2022-08-23T08:01:28;21.00;86.20
41678;DHT22;27364;49.026;8.712;2022-08-23T08:03:56;21.10;86.30
41678;DHT22;27364;49.026;8.712;2022-08-23T08:06:31;21.20;86.10
41678;DHT22;27364;49.026;8.712;2022-08-23T08:08:57;21.20;85.70
41678;DHT22;27364;49.026;8.712;2022-08-23T08:11:24;21.30;85.80
41678;DHT22;27364;49.026;8.712;2022-08-23T08:13:53;21.40;85.60
41678;DHT22;27364;49.026;8.712;2022-08-23T08:16:25;21.40;85.40
41678;DHT22;27364;49.026;8.712;2022-08-23T08:18:53;21.50;84.60
41678;DHT22;27364;49.026;8.712;2022-08-23T08:21:19;21.60;83.80
41678;DHT22;27364;49.026;8.712;2022-08-23T08:23:45;21.70;84.20
41678;DHT22;27364;49.026;8.712;2022-08-23T08:26:11;21.80;82.70
41678;DHT22;27364;49.026;8.712;2022-08-23T08:28:39;22.00;81.80
41678;DHT22;27364;49.026;8.712;2022-08-23T08:31:05;22.00;81.90
41678;DHT22;27364;49.026;8.712;2022-08-23T08:33:31;22.10;81.50
41678;DHT22;27364;49.026;8.712;2022-08-23T08:35:58;22.30;81.90
41678;DHT22;27364;49.026;8.712;2022-08-23T08:38:24;22.40;81.20
41678;DHT22;27364;49.026;8.712;2022-08-23T08:41:15;22.50;79.90
41678;DHT22;27364;49.026;8.712;2022-08-23T08:46:46;22.70;79.00
41678;DHT22;27364;49.026;8.712;2022-08-23T08:49:19;22.90;76.50
41678;DHT22;27364;49.026;8.712;2022-08-23T08:54:28;23.10;76.60
41678;DHT22;27364;49.026;8.712;2022-08-23T08:56:57;23.10;77.20
41678;DHT22;27364;49.026;8.712;2022-08-23T08:59:33;23.20;76.80
41678;DHT22;27364;49.026;8.712;2022-08-23T09:02:06;23.40;76.40
41678;DHT22;27364;49.026;8.712;2022-08-23T09:04:37;23.60;75.30
41678;DHT22;27364;49.026;8.712;2022-08-23T09:07:29;23.70;76.10
41678;DHT22;27364;49.026;8.712;2022-08-23T09:10:07;24.00;74.90
41678;DHT22;27364;49.026;8.712;2022-08-23T09:18:08;24.20;73.60
41678;DHT22;27364;49.026;8.712;2022-08-23T09:20:34;24.30;72.70
41678;DHT22;27364;49.026;8.712;2022-08-23T09:23:07;24.30;72.00
41678;DHT22;27364;49.026;8.712;2022-08-23T09:25:33;24.50;71.40
41678;DHT22;27364;49.026;8.712;2022-08-23T09:27:59;24.70;70.80
41678;DHT22;27364;49.026;8.712;2022-08-23T09:30:45;24.70;69.20
41678;DHT22;27364;49.026;8.712;2022-08-23T09:33:38;24.80;69.90
41678;DHT22;27364;49.026;8.712;2022-08-23T09:36:20;25.00;69.60
41678;DHT22;27364;49.026;8.712;2022-08-23T09:39:25;25.10;67.00
41678;DHT22;27364;49.026;8.712;2022-08-23T09:41:51;25.30;65.20
41678;DHT22;27364;49.026;8.712;2022-08-23T09:44:37;25.40;67.90
41678;DHT22;27364;49.026;8.712;2022-08-23T09:47:12;25.40;66.70
41678;DHT22;27364;49.026;8.712;2022-08-23T09:49:39;25.40;65.70
41678;DHT22;27364;49.026;8.712;2022-08-23T09:52:33;25.70;62.60
41678;DHT22;27364;49.026;8.712;2022-08-23T09:55:10;26.00;61.30
41678;DHT22;27364;49.026;8.712;2022-08-23T09:57:36;26.30;60.90
41678;DHT22;27364;49.026;8.712;2022-08-23T10:02:49;26.20;61.40
41678;DHT22;27364;49.026;8.712;2022-08-23T10:05:37;26.30;61.80
41678;DHT22;27364;49.026;8.712;2022-08-23T10:08:03;26.40;60.80
41678;DHT22;27364;49.026;8.712;2022-08-23T10:10:47;26.40;61.00
41678;DHT22;27364;49.026;8.712;2022-08-23T10:13:13;26.50;59.70
41678;DHT22;27364;49.026;8.712;2022-08-23T10:18:55;26.90;60.00
41678;DHT22;27364;49.026;8.712;2022-08-23T10:30:44;27.20;57.20
41678;DHT22;27364;49.026;8.712;2022-08-23T10:35:30;27.40;56.10
41678;DHT22;27364;49.026;8.712;2022-08-23T10:38:48;27.60;55.90
41678;DHT22;27364;49.026;8.712;2022-08-23T10:44:21;27.90;55.80
41678;DHT22;27364;49.026;8.712;2022-08-23T10:47:16;27.80;55.40
41678;DHT22;27364;49.026;8.712;2022-08-23T10:49:47;27.90;55.00
41678;DHT22;27364;49.026;8.712;2022-08-23T10:52:19;28.00;54.10
41678;DHT22;27364;49.026;8.712;2022-08-23T10:54:54;28.00;52.60
41678;DHT22;27364;49.026;8.712;2022-08-23T10:57:34;28.30;50.70
41678;DHT22;27364;49.026;8.712;2022-08-23T11:00:05;28.50;50.60
41678;DHT22;27364;49.026;8.712;2022-08-23T11:05:30;28.70;51.70
41678;DHT22;27364;49.026;8.712;2022-08-23T11:08:10;28.60;52.50
41678;DHT22;27364;49.026;8.712;2022-08-23T11:10:43;28.60;52.80
41678;DHT22;27364;49.026;8.712;2022-08-23T11:16:08;28.80;51.40
41678;DHT22;27364;49.026;8.712;2022-08-23T11:18:46;29.00;51.70
41678;DHT22;27364;49.026;8.712;2022-08-23T11:23:45;29.40;46.40
41678;DHT22;27364;49.026;8.712;2022-08-23T11:31:34;29.60;44.80
41678;DHT22;27364;49.026;8.712;2022-08-23T11:34:30;29.80;43.70
41678;DHT22;27364;49.026;8.712;2022-08-23T11:42:47;29.80;44.70
41678;DHT22;27364;49.026;8.712;2022-08-23T11:45:20;29.90;44.80
41678;DHT22;27364;49.026;8.712;2022-08-23T11:47:49;30.00;44.80
41678;DHT22;27364;49.026;8.712;2022-08-23T11:50:27;30.00;45.00
41678;DHT22;27364;49.026;8.712;2022-08-23T11:58:56;30.20;43.60
41678;DHT22;27364;49.026;8.712;2022-08-23T12:01:34;30.20;42.40
41678;DHT22;27364;49.026;8.712;2022-08-23T12:04:08;30.40;42.80
41678;DHT22;27364;49.026;8.712;2022-08-23T12:06:51;30.30;42.60
41678;DHT22;27364;49.026;8.712;2022-08-23T12:22:25;30.60;42.30
41678;DHT22;27364;49.026;8.712;2022-08-23T12:24:56;30.80;41.00
41678;DHT22;27364;49.026;8.712;2022-08-23T12:27:32;30.80;40.70
41678;DHT22;27364;49.026;8.712;2022-08-23T12:30:04;31.00;41.80
41678;DHT22;27364;49.026;8.712;2022-08-23T12:32:42;31.40;41.80
41678;DHT22;27364;49.026;8.712;2022-08-23T12:38:00;31.30;41.70
41678;DHT22;27364;49.026;8.712;2022-08-23T12:40:34;31.30;41.90
41678;DHT22;27364;49.026;8.712;2022-08-23T12:43:09;31.30;42.60
41678;DHT22;27364;49.026;8.712;2022-08-23T12:45:39;31.50;42.20
41678;DHT22;27364;49.026;8.712;2022-08-23T12:48:07;31.50;41.60
41678;DHT22;27364;49.026;8.712;2022-08-23T12:50:42;31.60;41.50
41678;DHT22;27364;49.026;8.712;2022-08-23T12:53:24;31.80;40.60
41678;DHT22;27364;49.026;8.712;2022-08-23T12:55:51;31.60;41.00
41678;DHT22;27364;49.026;8.712;2022-08-23T12:58:28;31.70;40.60
41678;DHT22;27364;49.026;8.712;2022-08-23T13:00:59;31.60;41.40
41678;DHT22;27364;49.026;8.712;2022-08-23T13:03:35;31.40;40.60
41678;DHT22;27364;49.026;8.712;2022-08-23T13:06:13;31.40;38.90
41678;DHT22;27364;49.026;8.712;2022-08-23T13:08:48;31.50;39.50
41678;DHT22;27364;49.026;8.712;2022-08-23T13:11:18;31.60;38.50
41678;DHT22;27364;49.026;8.712;2022-08-23T13:13:45;31.60;38.80
41678;DHT22;27364;49.026;8.712;2022-08-23T13:16:24;31.70;38.20
41678;DHT22;27364;49.026;8.712;2022-08-23T13:18:50;31.70;38.90
41678;DHT22;27364;49.026;8.712;2022-08-23T13:23:48;31.70;40.20
41678;DHT22;27364;49.026;8.712;2022-08-23T13:26:24;31.80;39.20
41678;DHT22;27364;49.026;8.712;2022-08-23T13:37:02;31.90;39.80
41678;DHT22;27364;49.026;8.712;2022-08-23T13:39:29;31.80;39.70
41678;DHT22;27364;49.026;8.712;2022-08-23T13:41:57;32.00;38.70
41678;DHT22;27364;49.026;8.712;2022-08-23T13:44:24;31.90;37.90
41678;DHT22;27364;49.026;8.712;2022-08-23T13:46:50;31.70;38.20
41678;DHT22;27364;49.026;8.712;2022-08-23T13:49:19;31.50;38.30
41678;DHT22;27364;49.026;8.712;2022-08-23T13:54:24;30.80;39.50
41678;DHT22;27364;49.026;8.712;2022-08-23T13:56:59;30.70;38.80
41678;DHT22;27364;49.026;8.712;2022-08-23T13:59:30;30.50;39.70
41678;DHT22;27364;49.026;8.712;2022-08-23T14:01:58;30.40;39.80
41678;DHT22;27364;49.026;8.712;2022-08-23T14:04:25;30.30;39.10
41678;DHT22;27364;49.026;8.712;2022-08-23T14:06:50;30.00;40.10
41678;DHT22;27364;49.026;8.712;2022-08-23T14:09:16;29.80;40.80
41678;DHT22;27364;49.026;8.712;2022-08-23T14:11:42;29.90;41.50
41678;DHT22;27364;49.026;8.712;2022-08-23T14:14:08;30.10;40.50
41678;DHT22;27364;49.026;8.712;2022-08-23T14:16:36;30.60;41.20
41678;DHT22;27364;49.026;8.712;2022-08-23T14:19:09;31.10;41.10
41678;DHT22;27364;49.026;8.712;2022-08-23T14:21:35;31.40;40.20
41678;DHT22;27364;49.026;8.712;2022-08-23T14:24:01;31.60;38.90
41678;DHT22;27364;49.026;8.712;2022-08-23T14:26:26;31.60;39.40
41678;DHT22;27364;49.026;8.712;2022-08-23T14:28:52;32.00;39.50
41678;DHT22;27364;49.026;8.712;2022-08-23T14:31:18;32.10;38.10
41678;DHT22;27364;49.026;8.712;2022-08-23T14:33:45;31.70;38.50
41678;DHT22;27364;49.026;8.712;2022-08-23T14:36:11;31.50;40.40
41678;DHT22;27364;49.026;8.712;2022-08-23T14:38:37;31.50;39.70
41678;DHT22;27364;49.026;8.712;2022-08-23T14:41:08;31.50;38.80
41678;DHT22;27364;49.026;8.712;2022-08-23T14:43:34;31.40;38.90
41678;DHT22;27364;49.026;8.712;2022-08-23T14:46:01;31.30;38.50
41678;DHT22;27364;49.026;8.712;2022-08-23T14:48:27;31.40;40.10
41678;DHT22;27364;49.026;8.712;2022-08-23T14:50:53;31.70;39.90
41678;DHT22;27364;49.026;8.712;2022-08-23T14:53:22;32.00;38.20
41678;DHT22;27364;49.026;8.712;2022-08-23T14:55:48;32.00;38.80
41678;DHT22;27364;49.026;8.712;2022-08-23T14:58:18;32.00;38.10
41678;DHT22;27364;49.026;8.712;2022-08-23T15:00:46;32.20;38.20
41678;DHT22;27364;49.026;8.712;2022-08-23T15:03:16;32.30;37.70
41678;DHT22;27364;49.026;8.712;2022-08-23T15:05:42;32.30;38.60
41678;DHT22;27364;49.026;8.712;2022-08-23T15:08:08;32.30;38.00
41678;DHT22;27364;49.026;8.712;2022-08-23T15:10:34;32.10;38.20
41678;DHT22;27364;49.026;8.712;2022-08-23T15:12:59;32.00;37.40
41678;DHT22;27364;49.026;8.712;2022-08-23T15:15:25;31.70;38.10
41678;DHT22;27364;49.026;8.712;2022-08-23T15:17:54;31.70;38.30
41678;DHT22;27364;49.026;8.712;2022-08-23T15:20:22;31.50;39.40
41678;DHT22;27364;49.026;8.712;2022-08-23T15:22:48;31.50;39.00
41678;DHT22;27364;49.026;8.712;2022-08-23T15:25:15;31.40;39.20
41678;DHT22;27364;49.026;8.712;2022-08-23T15:27:42;31.30;38.10
41678;DHT22;27364;49.026;8.712;2022-08-23T15:30:09;31.20;38.30
41678;DHT22;27364;49.026;8.712;2022-08-23T15:32:35;31.00;39.10
41678;DHT22;27364;49.026;8.712;2022-08-23T15:35:00;30.90;38.70
41678;DHT22;27364;49.026;8.712;2022-08-23T15:37:26;31.00;39.10
41678;DHT22;27364;49.026;8.712;2022-08-23T15:39:51;31.20;39.60
41678;DHT22;27364;49.026;8.712;2022-08-23T15:42:17;31.20;37.80
41678;DHT22;27364;49.026;8.712;2022-08-23T15:44:43;31.10;38.10
41678;DHT22;27364;49.026;8.712;2022-08-23T15:47:21;31.40;38.10
41678;DHT22;27364;49.026;8.712;2022-08-23T15:49:47;31.50;39.60
41678;DHT22;27364;49.026;8.712;2022-08-23T15:52:13;31.30;38.50
41678;DHT22;27364;49.026;8.712;2022-08-23T15:54:39;31.30;39.00
41678;DHT22;27364;49.026;8.712;2022-08-23T15:57:05;31.30;38.70
41678;DHT22;27364;49.026;8.712;2022-08-23T15:59:32;31.10;38.10
41678;DHT22;27364;49.026;8.712;2022-08-23T16:02:00;31.00;38.60
41678;DHT22;27364;49.026;8.712;2022-08-23T16:04:26;31.00;38.40
41678;DHT22;27364;49.026;8.712;2022-08-23T16:06:52;30.90;38.70
41678;DHT22;27364;49.026;8.712;2022-08-23T16:09:20;30.80;39.50
41678;DHT22;27364;49.026;8.712;2022-08-23T16:11:47;30.80;38.50
41678;DHT22;27364;49.026;8.712;2022-08-23T16:14:13;30.60;38.50
41678;DHT22;27364;49.026;8.712;2022-08-23T16:16:39;30.70;39.00
41678;DHT22;27364;49.026;8.712;2022-08-23T16:19:05;30.90;39.10
41678;DHT22;27364;49.026;8.712;2022-08-23T16:21:32;30.90;39.20
41678;DHT22;27364;49.026;8.712;2022-08-23T16:23:58;30.90;39.80
41678;DHT22;27364;49.026;8.712;2022-08-23T16:26:27;30.90;40.00
41678;DHT22;27364;49.026;8.712;2022-08-23T16:28:55;30.80;39.20
41678;DHT22;27364;49.026;8.712;2022-08-23T16:31:21;30.70;37.80
41678;DHT22;27364;49.026;8.712;2022-08-23T16:33:47;30.70;39.40
41678;DHT22;27364;49.026;8.712;2022-08-23T16:36:15;30.80;38.80
41678;DHT22;27364;49.026;8.712;2022-08-23T16:38:44;30.50;38.80
41678;DHT22;27364;49.026;8.712;2022-08-23T16:41:10;30.40;39.60
41678;DHT22;27364;49.026;8.712;2022-08-23T16:43:36;30.30;39.40
41678;DHT22;27364;49.026;8.712;2022-08-23T16:46:04;30.20;39.00
41678;DHT22;27364;49.026;8.712;2022-08-23T16:48:29;30.10;39.40
41678;DHT22;27364;49.026;8.712;2022-08-23T16:50:55;30.10;39.70
41678;DHT22;27364;49.026;8.712;2022-08-23T16:53:21;30.00;39.50
41678;DHT22;27364;49.026;8.712;2022-08-23T16:55:46;30.00;39.30
41678;DHT22;27364;49.026;8.712;2022-08-23T16:58:12;29.90;39.60
41678;DHT22;27364;49.026;8.712;2022-08-23T17:00:38;29.80;40.10
41678;DHT22;27364;49.026;8.712;2022-08-23T17:03:04;29.70;40.30
41678;DHT22;27364;49.026;8.712;2022-08-23T17:05:30;29.60;40.00
41678;DHT22;27364;49.026;8.712;2022-08-23T17:07:56;29.50;40.40